Orjiva, Spain
Current Conditions -  °F | °C
As of 6:30 PM on Thursday 30 Oct 2014 (Local Time) from LEGR Reporting Station
Clear Clear  
Wind Chill: 72°   Ceiling: Unl
Heat Index: 72°   Visibility: 6mi
Dew Point: 46°   Wind: 8mph
Humidity: 41%   Direction: 160°SSE
Pressure: 30.12"   Gusts: NA
Location:  36.9°N, 3.42°W
Report Text: LEGR 301730Z 16007KT 130V200 CAVOK 22/08 Q1020
Loading
Personal Weather Stations






























Interactive Weather Map
Tropical Storm Tracking
New forecast layout! Learn more

10-Day Weather Forecast

Advertisements
Track Severe Weather on mobile